sensor_id;sensor_type;location;lat;lon;timestamp;noise_LAeq;noise_LA_min;noise_LA_max;noise_LA01;noise_LA95
66589;Laerm;53447;49.272;11.070;2024-03-02T00:02:23;43.50;37.17;51.65;;
66589;Laerm;53447;49.272;11.070;2024-03-02T00:04:48;42.23;37.02;46.52;;
66589;Laerm;53447;49.272;11.070;2024-03-02T00:07:14;41.54;35.19;43.01;;
66589;Laerm;53447;49.272;11.070;2024-03-02T00:09:39;41.70;36.38;43.67;;
66589;Laerm;53447;49.272;11.070;2024-03-02T00:12:04;41.73;38.08;43.37;;
66589;Laerm;53447;49.272;11.070;2024-03-02T00:14:30;42.55;40.66;44.27;;
66589;Laerm;53447;49.272;11.070;2024-03-02T00:16:55;42.34;38.63;43.64;;
66589;Laerm;53447;49.272;11.070;2024-03-02T00:19:20;41.61;37.96;42.77;;
66589;Laerm;53447;49.272;11.070;2024-03-02T00:21:46;41.74;37.58;43.30;;
66589;Laerm;53447;49.272;11.070;2024-03-02T00:24:21;41.69;38.08;43.30;;
66589;Laerm;53447;49.272;11.070;2024-03-02T00:26:46;42.79;40.46;48.33;;
66589;Laerm;53447;49.272;11.070;2024-03-02T00:29:12;42.29;40.39;43.80;;
66589;Laerm;53447;49.272;11.070;2024-03-02T00:31:40;42.18;40.25;44.47;;
66589;Laerm;53447;49.272;11.070;2024-03-02T00:34:05;42.70;40.72;44.80;;
66589;Laerm;53447;49.272;11.070;2024-03-02T00:36:31;42.30;40.59;44.55;;
66589;Laerm;53447;49.272;11.070;2024-03-02T00:38:56;42.18;40.11;48.06;;
66589;Laerm;53447;49.272;11.070;2024-03-02T00:41:29;42.44;40.53;43.61;;
66589;Laerm;53447;49.272;11.070;2024-03-02T00:44:01;42.29;39.96;43.67;;
66589;Laerm;53447;49.272;11.070;2024-03-02T00:46:34;41.95;40.25;43.51;;
66589;Laerm;53447;49.272;11.070;2024-03-02T00:49:01;41.99;40.32;43.33;;
66589;Laerm;53447;49.272;11.070;2024-03-02T00:51:27;41.95;40.39;43.37;;
66589;Laerm;53447;49.272;11.070;2024-03-02T00:53:53;42.01;39.96;43.61;;
66589;Laerm;53447;49.272;11.070;2024-03-02T00:56:22;41.94;40.11;43.54;;
66589;Laerm;53447;49.272;11.070;2024-03-02T00:58:48;41.94;39.96;43.37;;
66589;Laerm;53447;49.272;11.070;2024-03-02T01:01:13;41.87;40.32;43.23;;
66589;Laerm;53447;49.272;11.070;2024-03-02T01:03:38;41.91;40.18;43.33;;
66589;Laerm;53447;49.272;11.070;2024-03-02T01:06:04;42.27;39.88;48.23;;
66589;Laerm;53447;49.272;11.070;2024-03-02T01:08:29;42.38;40.59;43.80;;
66589;Laerm;53447;49.272;11.070;2024-03-02T01:10:54;42.06;40.18;43.86;;
66589;Laerm;53447;49.272;11.070;2024-03-02T01:13:21;42.21;39.39;47.19;;
66589;Laerm;53447;49.272;11.070;2024-03-02T01:15:46;42.40;40.39;44.22;;
66589;Laerm;53447;49.272;11.070;2024-03-02T01:18:11;50.19;40.03;69.23;;
66589;Laerm;53447;49.272;11.070;2024-03-02T01:20:37;43.28;40.11;54.29;;
66589;Laerm;53447;49.272;11.070;2024-03-02T01:23:02;42.76;37.71;54.36;;
66589;Laerm;53447;49.272;11.070;2024-03-02T01:25:28;41.61;36.38;43.40;;
66589;Laerm;53447;49.272;11.070;2024-03-02T01:27:53;41.58;37.02;43.15;;
66589;Laerm;53447;49.272;11.070;2024-03-02T01:30:18;41.54;36.38;43.12;;
66589;Laerm;53447;49.272;11.070;2024-03-02T01:32:43;41.88;35.82;43.64;;
66589;Laerm;53447;49.272;11.070;2024-03-02T01:35:09;42.51;40.85;43.54;;
66589;Laerm;53447;49.272;11.070;2024-03-02T01:37:34;42.33;37.84;43.67;;
66589;Laerm;53447;49.272;11.070;2024-03-02T01:39:59;41.58;37.17;43.26;;
66589;Laerm;53447;49.272;11.070;2024-03-02T01:42:25;41.67;36.20;42.77;;
66589;Laerm;53447;49.272;11.070;2024-03-02T01:44:50;41.58;36.87;42.89;;
66589;Laerm;53447;49.272;11.070;2024-03-02T01:47:16;41.60;38.63;43.04;;
66589;Laerm;53447;49.272;11.070;2024-03-02T01:49:41;41.62;36.71;43.08;;
66589;Laerm;53447;49.272;11.070;2024-03-02T01:52:07;41.69;38.08;52.98;;
66589;Laerm;53447;49.272;11.070;2024-03-02T01:54:32;41.58;36.55;43.08;;
66589;Laerm;53447;49.272;11.070;2024-03-02T01:56:57;41.58;35.82;42.89;;
66589;Laerm;53447;49.272;11.070;2024-03-02T01:59:23;42.47;39.30;43.64;;
66589;Laerm;53447;49.272;11.070;2024-03-02T02:01:48;42.52;40.97;43.47;;
66589;Laerm;53447;49.272;11.070;2024-03-02T02:04:13;41.74;37.31;43.73;;
66589;Laerm;53447;49.272;11.070;2024-03-02T02:06:39;42.40;40.66;44.04;;
66589;Laerm;53447;49.272;11.070;2024-03-02T02:09:04;42.87;41.09;44.13;;
66589;Laerm;53447;49.272;11.070;2024-03-02T02:11:29;42.78;40.32;61.98;;
66589;Laerm;53447;49.272;11.070;2024-03-02T02:13:54;42.14;40.11;43.37;;
66589;Laerm;53447;49.272;11.070;2024-03-02T02:16:20;42.09;40.59;43.33;;
66589;Laerm;53447;49.272;11.070;2024-03-02T02:18:46;42.11;40.59;43.45;;
66589;Laerm;53447;49.272;11.070;2024-03-02T02:21:11;42.09;40.18;43.57;;
66589;Laerm;53447;49.272;11.070;2024-03-02T02:23:36;42.45;40.25;43.80;;
66589;Laerm;53447;49.272;11.070;2024-03-02T02:26:01;42.56;41.03;43.67;;
66589;Laerm;53447;49.272;11.070;2024-03-02T02:28:27;42.15;40.25;47.20;;
66589;Laerm;53447;49.272;11.070;2024-03-02T02:30:54;41.94;40.25;43.30;;
66589;Laerm;53447;49.272;11.070;2024-03-02T02:33:21;41.91;40.32;43.54;;
66589;Laerm;53447;49.272;11.070;2024-03-02T02:35:46;41.94;40.25;44.30;;
66589;Laerm;53447;49.272;11.070;2024-03-02T02:38:11;41.89;39.48;43.19;;
66589;Laerm;53447;49.272;11.070;2024-03-02T02:40:36;41.93;40.32;45.47;;
66589;Laerm;53447;49.272;11.070;2024-03-02T02:43:02;42.29;38.83;48.05;;
66589;Laerm;53447;49.272;11.070;2024-03-02T02:45:27;41.92;40.32;43.47;;
66589;Laerm;53447;49.272;11.070;2024-03-02T02:47:52;42.22;39.96;43.73;;
66589;Laerm;53447;49.272;11.070;2024-03-02T02:50:17;42.48;40.72;43.80;;
66589;Laerm;53447;49.272;11.070;2024-03-02T02:52:43;42.22;36.38;43.75;;
66589;Laerm;53447;49.272;11.070;2024-03-02T02:55:08;41.49;34.95;42.89;;
66589;Laerm;53447;49.272;11.070;2024-03-02T02:57:34;41.38;34.44;42.73;;
66589;Laerm;53447;49.272;11.070;2024-03-02T03:02:35;41.31;35.62;42.85;;
66589;Laerm;53447;49.272;11.070;2024-03-02T03:05:01;41.18;35.41;42.65;;
66589;Laerm;53447;49.272;11.070;2024-03-02T03:07:26;42.14;36.55;44.39;;
66589;Laerm;53447;49.272;11.070;2024-03-02T03:09:51;41.95;36.87;43.95;;
66589;Laerm;53447;49.272;11.070;2024-03-02T03:12:16;42.02;34.95;43.73;;
66589;Laerm;53447;49.272;11.070;2024-03-02T03:14:41;42.76;40.91;53.43;;
66589;Laerm;53447;49.272;11.070;2024-03-02T03:17:07;42.58;37.31;50.32;;
66589;Laerm;53447;49.272;11.070;2024-03-02T03:19:33;42.35;39.12;44.13;;
66589;Laerm;53447;49.272;11.070;2024-03-02T03:21:58;42.22;39.56;44.27;;
66589;Laerm;53447;49.272;11.070;2024-03-02T03:24:23;41.98;39.03;43.33;;
66589;Laerm;53447;49.272;11.070;2024-03-02T03:26:48;42.01;39.56;44.19;;
66589;Laerm;53447;49.272;11.070;2024-03-02T03:29:14;41.78;38.08;42.70;;
66589;Laerm;53447;49.272;11.070;2024-03-02T03:31:39;41.82;37.58;43.16;;
66589;Laerm;53447;49.272;11.070;2024-03-02T03:34:04;41.79;37.84;44.30;;
66589;Laerm;53447;49.272;11.070;2024-03-02T03:36:29;41.79;37.84;42.77;;
66589;Laerm;53447;49.272;11.070;2024-03-02T03:38:55;42.46;39.88;43.64;;
66589;Laerm;53447;49.272;11.070;2024-03-02T03:41:20;42.68;39.96;43.70;;
66589;Laerm;53447;49.272;11.070;2024-03-02T03:43:45;42.21;36.87;44.19;;
66589;Laerm;53447;49.272;11.070;2024-03-02T03:46:10;41.68;36.38;43.37;;
66589;Laerm;53447;49.272;11.070;2024-03-02T03:48:35;41.71;35.62;42.97;;
66589;Laerm;53447;49.272;11.070;2024-03-02T03:51:00;41.71;35.19;43.26;;
66589;Laerm;53447;49.272;11.070;2024-03-02T03:53:26;42.51;35.82;46.52;;
66589;Laerm;53447;49.272;11.070;2024-03-02T03:55:51;42.18;37.17;44.49;;
66589;Laerm;53447;49.272;11.070;2024-03-02T03:58:16;42.41;36.02;46.55;;
66589;Laerm;53447;49.272;11.070;2024-03-02T04:00:43;42.38;39.12;44.60;;
66589;Laerm;53447;49.272;11.070;2024-03-02T04:03:08;43.36;41.38;49.51;;
66589;Laerm;53447;49.272;11.070;2024-03-02T04:05:34;43.09;40.91;44.68;;
66589;Laerm;53447;49.272;11.070;2024-03-02T04:07:59;42.58;40.46;43.86;;
66589;Laerm;53447;49.272;11.070;2024-03-02T04:10:25;42.51;40.85;46.92;;
66589;Laerm;53447;49.272;11.070;2024-03-02T04:12:50;42.59;40.59;59.01;;
66589;Laerm;53447;49.272;11.070;2024-03-02T04:15:16;42.14;40.25;55.88;;
66589;Laerm;53447;49.272;11.070;2024-03-02T04:17:41;42.04;40.46;48.50;;
66589;Laerm;53447;49.272;11.070;2024-03-02T04:20:06;42.36;40.59;44.22;;
66589;Laerm;53447;49.272;11.070;2024-03-02T04:22:32;42.00;40.03;43.36;;
66589;Laerm;53447;49.272;11.070;2024-03-02T04:24:58;42.30;40.32;46.38;;
66589;Laerm;53447;49.272;11.070;2024-03-02T04:27:23;42.33;40.39;45.23;;
66589;Laerm;53447;49.272;11.070;2024-03-02T04:29:48;43.36;40.31;48.97;;
66589;Laerm;53447;49.272;11.070;2024-03-02T04:32:14;42.61;40.85;48.47;;
66589;Laerm;53447;49.272;11.070;2024-03-02T04:34:39;42.59;40.11;45.39;;
66589;Laerm;53447;49.272;11.070;2024-03-02T04:37:04;42.66;40.53;45.68;;
66589;Laerm;53447;49.272;11.070;2024-03-02T04:39:29;41.85;40.03;43.54;;
66589;Laerm;53447;49.272;11.070;2024-03-02T04:41:54;41.89;37.45;46.76;;
66589;Laerm;53447;49.272;11.070;2024-03-02T04:44:20;42.38;38.73;45.68;;
66589;Laerm;53447;49.272;11.070;2024-03-02T04:46:45;42.81;38.53;46.38;;
66589;Laerm;53447;49.272;11.070;2024-03-02T04:49:10;48.07;40.25;66.83;;
66589;Laerm;53447;49.272;11.070;2024-03-02T04:51:35;48.42;38.86;67.83;;
66589;Laerm;53447;49.272;11.070;2024-03-02T04:54:01;51.34;38.93;71.48;;
66589;Laerm;53447;49.272;11.070;2024-03-02T04:56:26;50.94;41.03;68.06;;
66589;Laerm;53447;49.272;11.070;2024-03-02T04:58:51;50.11;40.91;71.89;;
66589;Laerm;53447;49.272;11.070;2024-03-02T05:01:16;50.68;40.46;65.41;;
66589;Laerm;53447;49.272;11.070;2024-03-02T05:03:42;51.59;41.32;65.85;;
66589;Laerm;53447;49.272;11.070;2024-03-02T05:06:07;51.36;40.53;66.73;;
66589;Laerm;53447;49.272;11.070;2024-03-02T05:08:33;51.61;40.66;66.25;;
66589;Laerm;53447;49.272;11.070;2024-03-02T05:10:58;50.53;40.32;64.41;;
66589;Laerm;53447;49.272;11.070;2024-03-02T05:13:44;49.52;40.97;65.37;;
66589;Laerm;53447;49.272;11.070;2024-03-02T05:16:09;47.06;40.97;61.45;;
66589;Laerm;53447;49.272;11.070;2024-03-02T05:18:34;45.86;41.32;60.21;;
66589;Laerm;53447;49.272;11.070;2024-03-02T05:20:59;46.19;41.38;64.28;;
66589;Laerm;53447;49.272;11.070;2024-03-02T05:23:24;44.35;40.25;52.56;;
66589;Laerm;53447;49.272;11.070;2024-03-02T05:25:50;42.27;39.12;49.48;;
66589;Laerm;53447;49.272;11.070;2024-03-02T05:28:15;50.05;40.97;68.26;;
66589;Laerm;53447;49.272;11.070;2024-03-02T05:30:42;44.60;40.03;56.71;;
66589;Laerm;53447;49.272;11.070;2024-03-02T05:33:07;45.28;39.39;61.18;;
66589;Laerm;53447;49.272;11.070;2024-03-02T05:35:32;46.52;40.85;59.36;;
66589;Laerm;53447;49.272;11.070;2024-03-02T05:37:57;46.72;41.26;56.98;;
66589;Laerm;53447;49.272;11.070;2024-03-02T05:40:23;53.09;41.26;67.93;;
66589;Laerm;53447;49.272;11.070;2024-03-02T05:42:49;50.33;40.79;64.36;;
66589;Laerm;53447;49.272;11.070;2024-03-02T05:45:14;50.93;41.21;66.08;;
66589;Laerm;53447;49.272;11.070;2024-03-02T05:47:42;53.14;41.21;68.26;;
66589;Laerm;53447;49.272;11.070;2024-03-02T05:50:07;53.50;41.59;68.23;;
66589;Laerm;53447;49.272;11.070;2024-03-02T05:52:32;52.17;41.32;67.43;;
66589;Laerm;53447;49.272;11.070;2024-03-02T05:54:57;55.80;42.04;70.23;;
66589;Laerm;53447;49.272;11.070;2024-03-02T05:57:23;51.27;41.84;62.34;;
66589;Laerm;53447;49.272;11.070;2024-03-02T06:00:04;50.64;41.64;63.58;;
66589;Laerm;53447;49.272;11.070;2024-03-02T06:02:33;50.45;41.26;72.38;;
66589;Laerm;53447;49.272;11.070;2024-03-02T06:04:58;48.90;40.59;61.46;;
66589;Laerm;53447;49.272;11.070;2024-03-02T06:07:23;50.30;40.97;63.09;;
66589;Laerm;53447;49.272;11.070;2024-03-02T06:09:48;53.20;40.66;72.19;;
66589;Laerm;53447;49.272;11.070;2024-03-02T06:12:15;49.94;40.79;65.43;;
66589;Laerm;53447;49.272;11.070;2024-03-02T06:14:40;50.45;41.38;63.85;;
66589;Laerm;53447;49.272;11.070;2024-03-02T06:17:06;53.27;41.48;69.62;;
66589;Laerm;53447;49.272;11.070;2024-03-02T06:19:31;50.30;41.48;65.27;;
66589;Laerm;53447;49.272;11.070;2024-03-02T06:21:56;49.04;41.38;65.39;;
66589;Laerm;53447;49.272;11.070;2024-03-02T06:24:21;48.57;41.54;62.79;;
66589;Laerm;53447;49.272;11.070;2024-03-02T06:26:47;48.21;41.38;60.51;;
66589;Laerm;53447;49.272;11.070;2024-03-02T06:29:12;48.00;41.84;62.50;;
66589;Laerm;53447;49.272;11.070;2024-03-02T06:31:37;49.22;41.84;62.86;;
66589;Laerm;53447;49.272;11.070;2024-03-02T06:34:02;48.81;41.89;61.72;;
66589;Laerm;53447;49.272;11.070;2024-03-02T06:36:29;49.14;41.43;60.28;;
66589;Laerm;53447;49.272;11.070;2024-03-02T06:38:54;46.71;41.32;58.50;;
66589;Laerm;53447;49.272;11.070;2024-03-02T06:41:20;52.16;41.32;74.28;;
66589;Laerm;53447;49.272;11.070;2024-03-02T06:43:45;48.39;41.38;64.73;;
66589;Laerm;53447;49.272;11.070;2024-03-02T06:46:10;46.24;41.26;63.99;;
66589;Laerm;53447;49.272;11.070;2024-03-02T06:48:39;46.54;41.38;62.57;;
66589;Laerm;53447;49.272;11.070;2024-03-02T06:51:04;51.68;41.38;65.84;;
66589;Laerm;53447;49.272;11.070;2024-03-02T06:53:30;47.16;41.48;60.62;;
66589;Laerm;53447;49.272;11.070;2024-03-02T06:55:56;47.30;42.13;63.36;;
66589;Laerm;53447;49.272;11.070;2024-03-02T06:58:21;47.74;41.74;65.38;;
66589;Laerm;53447;49.272;11.070;2024-03-02T07:00:47;50.00;42.08;65.57;;
66589;Laerm;53447;49.272;11.070;2024-03-02T07:03:13;48.64;41.74;65.99;;
66589;Laerm;53447;49.272;11.070;2024-03-02T07:05:38;50.90;41.54;69.21;;
66589;Laerm;53447;49.272;11.070;2024-03-02T07:08:04;53.63;41.59;70.76;;
66589;Laerm;53447;49.272;11.070;2024-03-02T07:10:30;52.99;42.22;66.94;;
66589;Laerm;53447;49.272;11.070;2024-03-02T07:12:55;50.02;41.48;65.08;;
66589;Laerm;53447;49.272;11.070;2024-03-02T07:15:20;49.00;41.48;62.72;;
66589;Laerm;53447;49.272;11.070;2024-03-02T07:17:51;50.17;41.32;65.02;;
66589;Laerm;53447;49.272;11.070;2024-03-02T07:20:17;53.07;42.08;73.82;;
66589;Laerm;53447;49.272;11.070;2024-03-02T07:22:42;51.64;40.66;68.79;;
66589;Laerm;53447;49.272;11.070;2024-03-02T07:25:08;47.69;42.04;62.00;;
66589;Laerm;53447;49.272;11.070;2024-03-02T07:27:33;54.20;42.04;74.38;;
66589;Laerm;53447;49.272;11.070;2024-03-02T07:30:00;50.05;41.32;67.30;;
66589;Laerm;53447;49.272;11.070;2024-03-02T07:32:25;46.86;40.25;60.92;;
66589;Laerm;53447;49.272;11.070;2024-03-02T07:34:50;45.53;41.38;60.15;;
66589;Laerm;53447;49.272;11.070;2024-03-02T07:37:16;52.10;42.13;71.23;;
66589;Laerm;53447;49.272;11.070;2024-03-02T07:39:41;51.09;40.59;67.75;;
66589;Laerm;53447;49.272;11.070;2024-03-02T07:42:07;47.81;40.25;67.74;;
66589;Laerm;53447;49.272;11.070;2024-03-02T07:44:32;48.02;40.25;67.05;;
66589;Laerm;53447;49.272;11.070;2024-03-02T07:46:57;44.98;39.64;59.21;;
66589;Laerm;53447;49.272;11.070;2024-03-02T07:49:22;46.04;39.12;63.75;;
66589;Laerm;53447;49.272;11.070;2024-03-02T07:51:47;48.36;40.59;67.98;;
66589;Laerm;53447;49.272;11.070;2024-03-02T07:54:13;47.23;40.03;62.19;;
66589;Laerm;53447;49.272;11.070;2024-03-02T07:56:38;51.25;40.72;69.08;;
66589;Laerm;53447;49.272;11.070;2024-03-02T07:59:04;70.99;40.91;92.56;;
66589;Laerm;53447;49.272;11.070;2024-03-02T08:01:30;46.86;40.32;64.02;;
66589;Laerm;53447;49.272;11.070;2024-03-02T08:03:56;43.75;39.88;62.70;;
66589;Laerm;53447;49.272;11.070;2024-03-02T08:06:23;54.70;39.21;72.90;;
66589;Laerm;53447;49.272;11.070;2024-03-02T08:08:48;47.18;40.11;63.85;;
66589;Laerm;53447;49.272;11.070;2024-03-02T08:11:13;54.68;39.72;75.85;;
66589;Laerm;53447;49.272;11.070;2024-03-02T08:13:39;53.15;39.88;71.85;;
66589;Laerm;53447;49.272;11.070;2024-03-02T08:16:04;48.46;40.18;61.07;;
66589;Laerm;53447;49.272;11.070;2024-03-02T08:18:32;52.68;40.66;72.69;;
66589;Laerm;53447;49.272;11.070;2024-03-02T08:20:57;48.95;37.71;68.36;;
66589;Laerm;53447;49.272;11.070;2024-03-02T08:23:23;43.72;40.25;58.71;;
66589;Laerm;53447;49.272;11.070;2024-03-02T08:25:48;42.73;39.72;50.43;;
66589;Laerm;53447;49.272;11.070;2024-03-02T08:28:13;48.94;39.21;66.38;;
66589;Laerm;53447;49.272;11.070;2024-03-02T08:30:38;47.53;38.73;65.68;;
66589;Laerm;53447;49.272;11.070;2024-03-02T08:33:03;51.13;40.03;66.06;;
66589;Laerm;53447;49.272;11.070;2024-03-02T08:35:29;49.72;38.93;66.18;;
66589;Laerm;53447;49.272;11.070;2024-03-02T08:37:54;46.78;40.39;61.74;;
66589;Laerm;53447;49.272;11.070;2024-03-02T08:40:19;54.23;40.53;70.46;;
66589;Laerm;53447;49.272;11.070;2024-03-02T08:42:44;48.38;38.83;61.01;;
66589;Laerm;53447;49.272;11.070;2024-03-02T08:45:10;47.11;37.02;67.06;;
66589;Laerm;53447;49.272;11.070;2024-03-02T08:47:35;53.81;39.88;74.88;;
66589;Laerm;53447;49.272;11.070;2024-03-02T08:50:01;46.20;38.42;59.73;;
66589;Laerm;53447;49.272;11.070;2024-03-02T08:52:26;48.48;38.53;62.34;;
66589;Laerm;53447;49.272;11.070;2024-03-02T08:54:51;46.60;38.93;62.80;;
66589;Laerm;53447;49.272;11.070;2024-03-02T08:57:17;47.10;40.03;61.39;;
66589;Laerm;53447;49.272;11.070;2024-03-02T08:59:42;47.53;37.58;62.34;;
66589;Laerm;53447;49.272;11.070;2024-03-02T09:02:07;52.45;40.25;71.02;;
66589;Laerm;53447;49.272;11.070;2024-03-02T09:04:32;44.27;37.84;61.69;;
66589;Laerm;53447;49.272;11.070;2024-03-02T09:06:58;45.21;38.63;61.65;;
66589;Laerm;53447;49.272;11.070;2024-03-02T09:09:23;52.31;38.53;76.99;;
66589;Laerm;53447;49.272;11.070;2024-03-02T09:11:48;47.16;39.12;65.02;;
66589;Laerm;53447;49.272;11.070;2024-03-02T09:14:13;50.40;38.63;66.60;;
66589;Laerm;53447;49.272;11.070;2024-03-02T09:16:40;51.24;37.96;68.90;;
66589;Laerm;53447;49.272;11.070;2024-03-02T09:19:05;46.78;38.83;67.91;;
66589;Laerm;53447;49.272;11.070;2024-03-02T09:21:30;50.53;38.08;65.35;;
66589;Laerm;53447;49.272;11.070;2024-03-02T09:23:55;55.72;40.59;76.57;;
66589;Laerm;53447;49.272;11.070;2024-03-02T09:26:21;45.42;40.32;63.02;;
66589;Laerm;53447;49.272;11.070;2024-03-02T09:28:47;53.76;37.02;72.59;;
66589;Laerm;53447;49.272;11.070;2024-03-02T09:31:12;45.87;38.83;67.93;;
66589;Laerm;53447;49.272;11.070;2024-03-02T09:33:38;44.07;37.45;62.50;;
66589;Laerm;53447;49.272;11.070;2024-03-02T09:36:04;46.79;39.30;63.75;;
66589;Laerm;53447;49.272;11.070;2024-03-02T09:38:31;47.54;39.46;64.89;;
66589;Laerm;53447;49.272;11.070;2024-03-02T09:40:56;53.84;38.83;72.37;;
66589;Laerm;53447;49.272;11.070;2024-03-02T09:43:22;48.40;39.39;64.82;;
66589;Laerm;53447;49.272;11.070;2024-03-02T09:45:48;46.83;37.84;62.34;;
66589;Laerm;53447;49.272;11.070;2024-03-02T09:48:13;47.73;39.91;68.44;;
66589;Laerm;53447;49.272;11.070;2024-03-02T09:50:38;47.54;40.85;63.80;;
66589;Laerm;53447;49.272;11.070;2024-03-02T09:53:04;52.45;39.39;71.57;;
66589;Laerm;53447;49.272;11.070;2024-03-02T09:55:30;45.90;39.88;62.25;;
66589;Laerm;53447;49.272;11.070;2024-03-02T09:57:55;47.14;39.80;64.82;;
66589;Laerm;53447;49.272;11.070;2024-03-02T10:00:21;45.89;39.03;61.34;;
66589;Laerm;53447;49.272;11.070;2024-03-02T10:02:46;52.57;40.11;70.96;;
66589;Laerm;53447;49.272;11.070;2024-03-02T10:05:14;48.02;40.11;59.10;;
66589;Laerm;53447;49.272;11.070;2024-03-02T10:07:56;52.85;39.03;72.37;;
66589;Laerm;53447;49.272;11.070;2024-03-02T10:10:23;44.72;38.63;61.17;;
66589;Laerm;53447;49.272;11.070;2024-03-02T10:12:48;47.66;38.53;70.00;;
66589;Laerm;53447;49.272;11.070;2024-03-02T10:15:14;46.66;39.64;62.29;;
66589;Laerm;53447;49.272;11.070;2024-03-02T10:17:48;52.83;39.03;72.26;;
66589;Laerm;53447;49.272;11.070;2024-03-02T10:20:23;51.97;40.59;69.89;;
66589;Laerm;53447;49.272;11.070;2024-03-02T10:22:48;54.25;40.03;66.64;;
66589;Laerm;53447;49.272;11.070;2024-03-02T10:25:32;52.89;37.45;74.19;;
66589;Laerm;53447;49.272;11.070;2024-03-02T10:27:58;51.72;39.12;71.43;;
66589;Laerm;53447;49.272;11.070;2024-03-02T10:30:24;48.82;39.88;65.18;;
66589;Laerm;53447;49.272;11.070;2024-03-02T10:32:49;50.80;40.32;66.76;;
66589;Laerm;53447;49.272;11.070;2024-03-02T10:35:15;49.54;38.58;72.38;;
66589;Laerm;53447;49.272;11.070;2024-03-02T10:37:41;45.16;37.84;60.42;;
66589;Laerm;53447;49.272;11.070;2024-03-02T10:40:07;45.60;38.83;61.33;;
66589;Laerm;53447;49.272;11.070;2024-03-02T10:42:35;46.43;39.64;66.30;;
66589;Laerm;53447;49.272;11.070;2024-03-02T10:45:01;48.43;40.32;63.86;;
66589;Laerm;53447;49.272;11.070;2024-03-02T10:47:26;52.69;40.46;70.17;;
66589;Laerm;53447;49.272;11.070;2024-03-02T10:49:52;47.40;39.48;61.25;;
66589;Laerm;53447;49.272;11.070;2024-03-02T10:52:17;47.18;39.48;61.26;;
66589;Laerm;53447;49.272;11.070;2024-03-02T10:54:43;43.17;39.30;53.51;;
66589;Laerm;53447;49.272;11.070;2024-03-02T10:57:08;45.10;39.30;56.83;;
66589;Laerm;53447;49.272;11.070;2024-03-02T10:59:36;52.42;39.03;71.26;;
66589;Laerm;53447;49.272;11.070;2024-03-02T11:02:03;50.22;41.89;62.59;;
66589;Laerm;53447;49.272;11.070;2024-03-02T11:04:30;51.09;39.30;65.11;;
66589;Laerm;53447;49.272;11.070;2024-03-02T11:06:58;44.92;37.31;64.79;;
66589;Laerm;53447;49.272;11.070;2024-03-02T11:09:25;47.39;37.96;67.09;;
66589;Laerm;53447;49.272;11.070;2024-03-02T11:12:34;51.94;39.48;67.50;;
66589;Laerm;53447;49.272;11.070;2024-03-02T11:14:40;50.62;40.03;69.14;;
66589;Laerm;53447;49.272;11.070;2024-03-02T11:17:08;44.92;37.31;59.82;;
66589;Laerm;53447;49.272;11.070;2024-03-02T11:19:33;44.06;37.71;58.83;;
66589;Laerm;53447;49.272;11.070;2024-03-02T11:21:59;50.73;40.39;66.40;;
66589;Laerm;53447;49.272;11.070;2024-03-02T11:26:52;54.91;38.73;73.17;;
66589;Laerm;53447;49.272;11.070;2024-03-02T11:32:05;47.58;39.64;62.34;;
66589;Laerm;53447;49.272;11.070;2024-03-02T11:34:34;47.28;38.31;70.88;;
66589;Laerm;53447;49.272;11.070;2024-03-02T11:37:02;46.72;39.12;66.91;;
66589;Laerm;53447;49.272;11.070;2024-03-02T11:39:28;45.80;40.39;68.04;;
66589;Laerm;53447;49.272;11.070;2024-03-02T11:41:54;45.98;38.63;66.07;;
66589;Laerm;53447;49.272;11.070;2024-03-02T11:44:20;45.03;39.48;63.51;;
66589;Laerm;53447;49.272;11.070;2024-03-02T11:46:45;45.83;39.12;63.21;;
66589;Laerm;53447;49.272;11.070;2024-03-02T11:49:14;45.46;39.48;64.93;;
66589;Laerm;53447;49.272;11.070;2024-03-02T11:51:40;49.76;38.58;67.46;;
66589;Laerm;53447;49.272;11.070;2024-03-02T11:54:15;46.35;39.56;66.36;;
66589;Laerm;53447;49.272;11.070;2024-03-02T11:56:40;47.36;38.53;68.98;;
66589;Laerm;53447;49.272;11.070;2024-03-02T11:59:06;47.56;38.93;65.05;;
66589;Laerm;53447;49.272;11.070;2024-03-02T12:01:34;44.19;39.03;64.74;;
66589;Laerm;53447;49.272;11.070;2024-03-02T12:03:59;43.25;38.31;58.99;;
66589;Laerm;53447;49.272;11.070;2024-03-02T12:06:24;47.18;37.45;70.16;;
66589;Laerm;53447;49.272;11.070;2024-03-02T12:08:52;42.53;38.42;54.63;;
66589;Laerm;53447;49.272;11.070;2024-03-02T12:11:17;42.46;37.58;54.56;;
66589;Laerm;53447;49.272;11.070;2024-03-02T12:13:51;42.79;38.20;48.17;;
66589;Laerm;53447;49.272;11.070;2024-03-02T12:16:22;48.82;38.73;66.53;;
66589;Laerm;53447;49.272;11.070;2024-03-02T12:18:47;47.42;38.63;61.05;;
66589;Laerm;53447;49.272;11.070;2024-03-02T12:21:13;51.05;39.21;68.18;;
66589;Laerm;53447;49.272;11.070;2024-03-02T12:23:38;46.57;39.64;57.87;;
66589;Laerm;53447;49.272;11.070;2024-03-02T12:26:03;50.04;39.21;77.57;;
66589;Laerm;53447;49.272;11.070;2024-03-02T12:28:29;45.02;38.20;61.12;;
66589;Laerm;53447;49.272;11.070;2024-03-02T12:30:54;52.78;38.31;70.60;;
66589;Laerm;53447;49.272;11.070;2024-03-02T12:33:20;52.90;38.73;71.46;;
66589;Laerm;53447;49.272;11.070;2024-03-02T12:35:45;45.85;39.39;57.57;;
66589;Laerm;53447;49.272;11.070;2024-03-02T12:38:10;52.69;39.96;71.60;;
66589;Laerm;53447;49.272;11.070;2024-03-02T12:40:36;48.14;40.46;63.29;;
66589;Laerm;53447;49.272;11.070;2024-03-02T12:43:02;45.80;39.21;60.74;;
66589;Laerm;53447;49.272;11.070;2024-03-02T12:45:27;46.34;39.21;57.12;;
66589;Laerm;53447;49.272;11.070;2024-03-02T12:47:53;45.73;39.64;56.20;;
66589;Laerm;53447;49.272;11.070;2024-03-02T12:50:18;46.68;40.25;62.04;;
66589;Laerm;53447;49.272;11.070;2024-03-02T12:52:50;51.38;39.64;69.84;;
66589;Laerm;53447;49.272;11.070;2024-03-02T12:55:15;46.04;38.63;65.15;;
66589;Laerm;53447;49.272;11.070;2024-03-02T12:57:41;46.19;38.49;59.33;;
66589;Laerm;53447;49.272;11.070;2024-03-02T13:00:07;44.32;40.11;61.40;;
66589;Laerm;53447;49.272;11.070;2024-03-02T13:02:35;46.10;37.96;58.90;;
66589;Laerm;53447;49.272;11.070;2024-03-02T13:05:01;45.48;39.12;61.36;;
66589;Laerm;53447;49.272;11.070;2024-03-02T13:07:27;43.76;38.53;56.04;;
66589;Laerm;53447;49.272;11.070;2024-03-02T13:09:53;45.08;37.58;60.24;;
66589;Laerm;53447;49.272;11.070;2024-03-02T13:12:23;44.95;38.93;57.27;;
66589;Laerm;53447;49.272;11.070;2024-03-02T13:14:50;46.69;39.03;60.57;;
66589;Laerm;53447;49.272;11.070;2024-03-02T13:17:17;44.64;38.08;60.24;;
66589;Laerm;53447;49.272;11.070;2024-03-02T13:19:55;44.08;37.96;59.36;;
66589;Laerm;53447;49.272;11.070;2024-03-02T13:22:20;44.81;39.56;61.42;;
66589;Laerm;53447;49.272;11.070;2024-03-02T13:24:46;45.21;37.02;57.73;;
66589;Laerm;53447;49.272;11.070;2024-03-02T13:27:11;43.29;37.31;57.01;;
66589;Laerm;53447;49.272;11.070;2024-03-02T13:29:37;44.44;39.03;60.00;;
66589;Laerm;53447;49.272;11.070;2024-03-02T13:32:02;51.17;38.73;69.93;;
66589;Laerm;53447;49.272;11.070;2024-03-02T13:34:28;50.60;39.12;66.47;;